Flight Track Log - Related Links

Times and Time Zones

All times are in EDT time to prevent confusion due to time zone crossing. See the SVA1669 flight status page for this flight to view local times or setup timezone preferences in your user account.


Time Position Orientation Groundspeed Altitude Reporting Facility
EDT Latitude Longitude Course Direction KTS MPH feet Rate Location/Type
Thu 04:06:06 PM 24.9570 46.7080 295° West 2 2  Level FlightAware ADS-B
Thu 04:08:55 PM 24.9580 46.7070 318° Northwest 18 21 216 Level FlightAware ADS-B
Thu 04:09:20 PM 24.9600 46.7060 336° Northwest 15 17 294 Level FlightAware ADS-B
Thu 04:09:51 PM 24.9620 46.7050 336° Northwest 20 23 310 Level FlightAware ADS-B
Thu 04:10:20 PM 24.9650 46.7030 329° Northwest 19 22 333 Level FlightAware ADS-B
Thu 04:10:30 PM 24.9660 46.7030 360° North 19 22 358 Level FlightAware ADS-B
Thu 04:10:56 PM 24.9680 46.7010 318° Northwest 22 25 368 Level FlightAware ADS-B
Thu 04:11:37 PM 24.9700 46.7000 336° Northwest 14 16 395 Level FlightAware ADS-B
Thu 04:12:01 PM 24.9720 46.6990 336° Northwest 15 17 448 Level FlightAware ADS-B
Thu 04:12:30 PM 24.9740 46.6980 336° Northwest 12 14 486 Level FlightAware ADS-B
Thu 04:13:00 PM 24.9750 46.6990 42° Northeast 16 18 541 Level FlightAware ADS-B
Thu 04:13:30 PM 24.9760 46.7000 42° Northeast 3 3 613 Level FlightAware ADS-B
Thu 04:15:30 PM 24.9760 46.7010 90° East 8 9 708 Level FlightAware ADS-B
Thu 04:16:15 PM 24.9750 46.7030 119° Southeast 56 64 1,840 Level FlightAware ADS-B
Thu 04:16:45 PM 24.9590 46.7130 150° Southeast 168 193 2,300 3,055 Climbing FlightAware ADS-B
Thu 04:17:10 PM 24.9420 46.7240 150° Southeast 191 220 2,800 2,000 Climbing FlightAware ADS-B
Thu 04:17:30 PM 24.9260 46.7340 150° Southeast 184 212 3,800 2,571 Climbing FlightAware ADS-B
Thu 04:17:45 PM 24.9130 46.7400 157° South 182 209 4,300 1,200 Climbing FlightAware ADS-B
Thu 04:17:55 PM 24.9040 46.7410 174° South 193 222 4,300 194 Level FlightAware ADS-B
Thu 04:18:16 PM 24.8860 46.7320 204° Southwest 225 259 4,400 686 Climbing FlightAware ADS-B
Thu 04:18:30 PM 24.8740 46.7220 217° Southwest 248 285 4,700 1,500 Climbing FlightAware ADS-B
Thu 04:19:00 PM 24.8440 46.6960 218° Southwest 271 312 5,500 1,714 Climbing FlightAware ADS-B
Thu 04:19:26 PM 24.8190 46.6740 219° Southwest 271 312 6,300 2,143 Climbing FlightAware ADS-B
Thu 04:19:56 PM 24.7870 46.6470 217° Southwest 284 327 7,500 2,182 Climbing FlightAware ADS-B
Thu 04:20:21 PM 24.7610 46.6240 219° Southwest 291 335 8,300 2,073 Climbing FlightAware ADS-B
Thu 04:20:51 PM 24.7290 46.5960 218° Southwest 292 336 9,400 2,143 Climbing FlightAware ADS-B
Thu 04:21:31 PM 24.6840 46.5570 218° Southwest 313 360 10,800 1,800 Climbing FlightAware ADS-B
Thu 04:22:11 PM 24.6370 46.5170 218° Southwest 329 379 11,800 1,852 Climbing FlightAware ADS-B
Thu 04:22:52 PM 24.5860 46.4730 218° Southwest 336 387 13,300 2,250 Climbing FlightAware ADS-B
Thu 04:23:31 PM 24.5360 46.4300 218° Southwest 349 402 14,800 2,260 Climbing FlightAware ADS-B
Thu 04:24:09 PM 24.4910 46.3910 218° Southwest 349 402 16,200 2,080 Climbing FlightAware ADS-B
Thu 04:24:46 PM 24.4400 46.3470 218° Southwest 354 407 17,400 1,636 Climbing FlightAware ADS-B
Thu 04:25:26 PM 24.3850 46.3000 218° Southwest 369 425 18,300 1,412 Climbing FlightAware ADS-B
Thu 04:26:11 PM 24.3230 46.2470 218° Southwest 386 444 19,400 1,425 Climbing FlightAware ADS-B
Thu 04:26:46 PM 24.2730 46.2040 218° Southwest 390 449 20,200 1,425 Climbing FlightAware ADS-B
Thu 04:27:31 PM 24.2060 46.1470 218° Southwest 397 457 21,300 1,500 Climbing FlightAware ADS-B
Thu 04:28:06 PM 24.1560 46.1040 218° Southwest 406 467 22,200 1,360 Climbing FlightAware ADS-B
Thu 04:28:46 PM 24.0940 46.0510 218° Southwest 411 473 23,000 1,275 Climbing FlightAware ADS-B
Thu 04:29:26 PM 24.0340 46.0000 218° Southwest 414 476 23,900 1,333 Climbing FlightAware ADS-B
Thu 04:30:07 PM 23.9710 45.9470 218° Southwest 425 489 24,800 1,200 Climbing FlightAware ADS-B
Thu 04:30:51 PM 23.9010 45.8870 218° Southwest 433 498 25,600 1,213 Climbing FlightAware ADS-B
Thu 04:31:36 PM 23.8290 45.8260 218° Southwest 431 496 26,600 1,200 Climbing FlightAware ADS-B
Thu 04:32:16 PM 23.7630 45.7710 217° Southwest 436 502 27,300 1,037 Climbing FlightAware ADS-B
Thu 04:32:57 PM 23.6980 45.7150 218° Southwest 446 513 28,000 1,026 Climbing FlightAware ADS-B
Thu 04:33:32 PM 23.6390 45.6660 217° Southwest 452 520 28,600 975 Climbing FlightAware ADS-B
Thu 04:34:17 PM 23.5640 45.6020 218° Southwest 452 520 29,300 1,059 Climbing FlightAware ADS-B
Thu 04:34:57 PM 23.4960 45.5450 218° Southwest 452 520 30,100 1,037 Climbing FlightAware ADS-B
Thu 04:35:38 PM 23.4270 45.4870 218° Southwest 464 534 30,700 951 Climbing FlightAware ADS-B
Thu 04:36:19 PM 23.3580 45.4290 218° Southwest 457 526 31,400 963 Climbing FlightAware ADS-B
Thu 04:36:59 PM 23.2900 45.3720 218° Southwest 455 524 32,000 424 Climbing FlightAware ADS-B
Thu 04:37:44 PM 23.2150 45.3080 218° Southwest 453 521 32,000  Level FlightAware ADS-B
Thu 04:38:19 PM 23.1550 45.2570 218° Southwest 453 521 32,000  Level FlightAware ADS-B
Thu 04:39:00 PM 23.0890 45.2010 218° Southwest 453 521 32,000  Level FlightAware ADS-B
Thu 04:39:40 PM 23.0260 45.1470 218° Southwest 453 521 32,000  Level FlightAware ADS-B
Thu 04:40:46 PM 22.9160 45.0540 218° Southwest 451 519 32,000  Level FlightAware ADS-B
Thu 04:41:45 PM 22.8280 44.9790 218° Southwest 451 519 32,000  Level FlightAware ADS-B
Thu 04:42:21 PM 22.7770 44.9360 218° Southwest 451 519 32,000  Level FlightAware ADS-B
Thu 04:43:22 PM 22.6920 44.8640 218° Southwest 451 519 32,000  Level FlightAware ADS-B
Thu 04:44:06 PM 22.5840 44.7730 218° Southwest 453 521 32,000  Level FlightAware ADS-B
Thu 04:44:54 PM 22.5100 44.7110 218° Southwest 454 522 32,000  Level FlightAware ADS-B
Thu 04:45:30 PM 22.4600 44.6680 218° Southwest 454 522 32,000  Level FlightAware ADS-B
Thu 04:46:19 PM 22.3910 44.6100 218° Southwest 454 522 32,000  Level FlightAware ADS-B
Thu 04:46:55 PM 22.3400 44.5670 218° Southwest 454 522 32,000  Level FlightAware ADS-B
Thu 04:47:32 PM 22.2880 44.5230 218° Southwest 454 522 32,000  Level FlightAware ADS-B
Thu 04:48:32 PM 22.2040 44.4520 218° Southwest 454 522 32,000  Level FlightAware ADS-B
Thu 04:49:08 PM 22.1530 44.4090 218° Southwest 454 522 32,000  Level FlightAware ADS-B
Thu 04:49:44 PM 22.1020 44.3660 218° Southwest 454 522 32,000  Level FlightAware ADS-B
Thu 04:50:32 PM 22.0350 44.3090 218° Southwest 454 522 32,000  Level FlightAware ADS-B
Thu 04:51:08 PM 21.9840 44.2670 217° Southwest 454 522 32,000  Level FlightAware ADS-B
Thu 04:51:56 PM 21.9170 44.2100 218° Southwest 454 522 32,000  Level FlightAware ADS-B
Thu 04:52:32 PM 21.8660 44.1670 218° Southwest 454 522 32,000  Level FlightAware ADS-B
Thu 04:53:32 PM 21.7820 44.0960 218° Southwest 454 522 32,000  Level FlightAware ADS-B
Thu 04:54:08 PM 21.7310 44.0530 218° Southwest 454 522 32,000  Level FlightAware ADS-B
Thu 04:56:00 PM 21.5731 43.9883 201° Southwest  Level Estimated
Thu 04:57:00 PM 21.4886 43.9537 201° Southwest  Level Estimated
Thu 04:58:00 PM 21.4040 43.9192 201° Southwest  Level Estimated
Thu 04:59:00 PM 21.3194 43.8847 201° Southwest  Level Estimated
Thu 05:00:00 PM 21.2348 43.8502 201° Southwest  Level Estimated
Thu 05:01:00 PM 21.1502 43.8158 201° Southwest  Level Estimated
Thu 05:02:00 PM 21.0656 43.7814 201° Southwest  Level Estimated
Thu 05:03:00 PM 20.9810 43.7470 201° Southwest  Level Estimated
Thu 05:04:00 PM 20.8963 43.7127 201° Southwest  Level Estimated
Thu 05:05:00 PM 20.8117 43.6785 201° Southwest  Level Estimated
Thu 05:06:00 PM 20.7271 43.6442 201° Southwest  Level Estimated
Thu 05:07:00 PM 20.6424 43.6100 201° Southwest  Level Estimated
Thu 05:08:00 PM 20.5578 43.5759 201° Southwest  Level Estimated
Thu 05:09:00 PM 20.4731 43.5418 201° Southwest  Level Estimated
Thu 05:10:00 PM 20.3884 43.5077 201° Southwest  Level Estimated
Thu 05:11:00 PM 20.3038 43.4737 201° Southwest  Level Estimated
Thu 05:12:00 PM 20.2191 43.4397 201° Southwest  Level Estimated
Thu 05:13:00 PM 20.1344 43.4057 201° Southwest  Level Estimated
Thu 05:14:00 PM 20.0497 43.3717 201° Southwest  Level Estimated
Thu 05:15:00 PM 19.9650 43.3379 201° Southwest  Level Estimated
Thu 05:16:00 PM 19.8803 43.3040 201° Southwest  Level Estimated
Thu 05:17:00 PM 19.7956 43.2702 201° Southwest  Level Estimated
Thu 05:18:00 PM 19.7109 43.2364 201° Southwest  Level Estimated
Thu 05:19:00 PM 19.6262 43.2026 201° Southwest  Level Estimated
Thu 05:20:00 PM 19.5414 43.1689 201° Southwest  Level Estimated
Thu 05:21:00 PM 19.4567 43.1353 201° Southwest  Level Estimated
Thu 05:22:00 PM 19.3720 43.1016 201° Southwest  Level Estimated
Thu 05:23:00 PM 19.2872 43.0680 201° Southwest  Level Estimated
Thu 05:24:00 PM 19.2025 43.0344 201° Southwest  Level Estimated
Thu 05:25:00 PM 19.1177 43.0009 201° Southwest  Level Estimated
Thu 05:26:00 PM 19.0329 42.9674 200° South  Level Estimated
Thu 05:27:00 PM 18.9482 42.9339 200° South  Level Estimated
Thu 05:28:00 PM 18.8634 42.9005 200° South  Level Estimated
Thu 05:29:00 PM 18.7786 42.8671 200° South  Level Estimated

Login

Don't have an account? Register now (free) for customized features, flight alerts, and more!